createdAt,value
2022-09-03T00:00:06.825Z,55.80
2022-09-03T00:02:33.320Z,55.84
2022-09-03T00:05:00.034Z,55.53
2022-09-03T00:07:26.713Z,55.66
2022-09-03T00:09:53.042Z,55.70
2022-09-03T00:12:19.392Z,55.89
2022-09-03T00:14:45.967Z,55.86
2022-09-03T00:17:12.324Z,55.88
2022-09-03T00:19:38.728Z,55.87
2022-09-03T00:22:05.453Z,55.83
2022-09-03T00:24:31.856Z,55.75
2022-09-03T00:26:58.395Z,56.04
2022-09-03T00:29:24.682Z,55.66
2022-09-03T00:31:51.462Z,55.75
2022-09-03T00:34:17.830Z,55.68
2022-09-03T00:36:45.600Z,56.07
2022-09-03T00:39:11.945Z,56.20
2022-09-03T00:41:38.488Z,55.76
2022-09-03T00:44:04.837Z,55.86
2022-09-03T00:46:31.769Z,55.85
2022-09-03T00:48:58.246Z,55.81
2022-09-03T00:51:24.598Z,56.15
2022-09-03T00:53:51.418Z,55.96
2022-09-03T00:56:17.901Z,55.97
2022-09-03T00:58:44.550Z,55.62
2022-09-03T01:01:11.038Z,56.13
2022-09-03T01:03:37.513Z,55.96
2022-09-03T01:06:04.294Z,56.02
2022-09-03T01:08:30.835Z,55.80
2022-09-03T01:10:57.244Z,55.91
2022-09-03T01:13:23.617Z,56.20
2022-09-03T01:15:50.161Z,55.94
2022-09-03T01:18:16.514Z,55.83
2022-09-03T01:20:43.326Z,55.93
2022-09-03T01:23:09.660Z,56.28
2022-09-03T01:25:36.101Z,55.79
2022-09-03T01:28:02.892Z,56.02
2022-09-03T01:30:29.467Z,55.84
2022-09-03T01:32:55.842Z,56.19
2022-09-03T01:35:22.192Z,55.94
2022-09-03T01:37:48.570Z,56.22
2022-09-03T01:40:14.966Z,56.42
2022-09-03T01:42:41.610Z,56.24
2022-09-03T01:45:07.964Z,56.02
2022-09-03T01:47:34.298Z,55.97
2022-09-03T01:50:00.690Z,56.02
2022-09-03T01:52:27.130Z,56.15
2022-09-03T01:54:53.466Z,56.25
2022-09-03T01:57:35.704Z,56.04
2022-09-03T02:00:04.073Z,55.74
2022-09-03T02:02:31.056Z,56.24
2022-09-03T02:04:57.630Z,55.78
2022-09-03T02:07:23.972Z,56.04
2022-09-03T02:09:50.685Z,55.95
2022-09-03T02:12:17.299Z,55.91
2022-09-03T02:14:43.637Z,56.33
2022-09-03T02:17:10.496Z,56.22
2022-09-03T02:19:39.169Z,56.44
2022-09-03T02:22:05.565Z,56.18
2022-09-03T02:24:31.912Z,56.32
2022-09-03T02:26:58.322Z,56.35
2022-09-03T02:29:24.794Z,56.58
2022-09-03T02:31:51.794Z,56.40
2022-09-03T02:34:18.096Z,56.19
2022-09-03T02:36:44.568Z,56.52
2022-09-03T02:39:10.919Z,56.37
2022-09-03T02:41:37.253Z,56.65
2022-09-03T02:44:03.854Z,56.61
2022-09-03T02:46:30.266Z,56.40
2022-09-03T02:48:56.622Z,56.44
2022-09-03T02:51:23.085Z,56.32
2022-09-03T02:53:50.937Z,56.58
2022-09-03T02:56:17.325Z,56.29
2022-09-03T02:58:43.657Z,56.32
2022-09-03T03:01:10.169Z,56.54
2022-09-03T03:03:36.621Z,56.49
2022-09-03T03:06:03.021Z,56.58
2022-09-03T03:08:29.545Z,56.53
2022-09-03T03:10:56.054Z,56.57
2022-09-03T03:13:22.378Z,56.75
2022-09-03T03:15:48.775Z,56.31
2022-09-03T03:18:15.804Z,56.69
2022-09-03T03:20:42.392Z,56.69
2022-09-03T03:23:08.754Z,56.48
2022-09-03T03:25:35.214Z,56.54
2022-09-03T03:28:01.625Z,56.58
2022-09-03T03:30:28.152Z,56.52
2022-09-03T03:32:54.764Z,56.62
2022-09-03T03:35:21.338Z,56.31
2022-09-03T03:37:49.177Z,56.71
2022-09-03T03:40:15.541Z,56.49
2022-09-03T03:42:41.840Z,56.78
2022-09-03T03:45:08.313Z,56.56
2022-09-03T03:47:34.918Z,56.48
2022-09-03T03:50:01.292Z,56.50
2022-09-03T03:52:27.724Z,56.93
2022-09-03T03:54:54.068Z,56.52
2022-09-03T03:57:21.962Z,56.39
2022-09-03T03:59:49.197Z,56.42
2022-09-03T04:02:15.684Z,56.48
2022-09-03T04:04:42.045Z,56.43
2022-09-03T04:07:08.602Z,56.69
2022-09-03T04:09:34.949Z,56.75
2022-09-03T04:12:01.274Z,56.35
2022-09-03T04:14:27.816Z,56.45
2022-09-03T04:16:54.195Z,56.78
2022-09-03T04:19:20.592Z,56.63
2022-09-03T04:21:47.057Z,56.36
2022-09-03T04:24:13.721Z,56.89
2022-09-03T04:26:40.098Z,56.74
2022-09-03T04:29:06.489Z,56.53
2022-09-03T04:31:32.876Z,56.48
2022-09-03T04:33:59.283Z,56.54
2022-09-03T04:36:25.815Z,56.81
2022-09-03T04:38:52.422Z,56.47
2022-09-03T04:41:18.737Z,56.76
2022-09-03T04:43:45.045Z,56.25
2022-09-03T04:46:16.376Z,56.95
2022-09-03T04:48:44.889Z,56.51
2022-09-03T04:51:11.264Z,56.89
2022-09-03T04:53:37.987Z,56.35
2022-09-03T04:56:04.491Z,56.44
2022-09-03T04:58:31.070Z,56.69
2022-09-03T05:00:57.976Z,56.49
2022-09-03T05:03:24.438Z,56.49
2022-09-03T05:05:52.469Z,56.55
2022-09-03T05:08:18.915Z,56.65
2022-09-03T05:10:45.218Z,56.45
2022-09-03T05:13:11.604Z,56.27
2022-09-03T05:15:37.884Z,56.44
2022-09-03T05:18:04.187Z,56.29
2022-09-03T05:20:30.526Z,56.38
2022-09-03T05:22:56.909Z,56.63
2022-09-03T05:25:23.297Z,56.23
2022-09-03T05:27:49.598Z,56.28
2022-09-03T05:30:15.880Z,56.63
2022-09-03T05:32:42.274Z,56.59
2022-09-03T05:35:08.633Z,56.42
2022-09-03T05:37:35.296Z,56.25
2022-09-03T05:40:02.000Z,56.42
2022-09-03T05:42:28.385Z,56.18
2022-09-03T05:44:55.822Z,56.16
2022-09-03T05:47:22.298Z,56.27
2022-09-03T05:49:48.597Z,56.33
2022-09-03T05:52:14.918Z,56.46
2022-09-03T05:54:41.274Z,56.45
2022-09-03T05:57:07.587Z,56.24
2022-09-03T05:59:33.988Z,56.13
2022-09-03T06:02:00.791Z,56.53
2022-09-03T06:04:27.704Z,56.26
2022-09-03T06:06:54.056Z,56.35
2022-09-03T06:09:20.483Z,56.36
2022-09-03T06:11:47.116Z,56.44
2022-09-03T06:14:13.909Z,56.36
2022-09-03T06:16:40.281Z,56.13
2022-09-03T06:19:06.675Z,56.11
2022-09-03T06:21:33.116Z,56.46
2022-09-03T06:24:00.357Z,56.37
2022-09-03T06:26:26.849Z,56.34
2022-09-03T06:28:53.462Z,56.37
2022-09-03T06:31:19.812Z,56.09
2022-09-03T06:33:46.202Z,56.50
2022-09-03T06:36:12.874Z,56.16
2022-09-03T06:38:39.150Z,56.02
2022-09-03T06:41:05.588Z,56.22
2022-09-03T06:43:32.150Z,56.36
2022-09-03T06:45:58.750Z,56.39
2022-09-03T06:48:25.282Z,56.43
2022-09-03T06:50:51.874Z,56.21
2022-09-03T06:53:18.454Z,56.21
2022-09-03T06:55:44.782Z,56.28
2022-09-03T06:58:11.149Z,56.20
2022-09-03T07:00:37.619Z,56.09
2022-09-03T07:03:03.973Z,56.18
2022-09-03T07:05:30.308Z,56.34
2022-09-03T07:07:56.588Z,56.41
2022-09-03T07:10:23.014Z,56.53
2022-09-03T07:12:49.536Z,56.40
2022-09-03T07:15:15.968Z,56.62
2022-09-03T07:17:42.632Z,56.25
2022-09-03T07:20:09.526Z,56.84
2022-09-03T07:22:35.944Z,56.46
2022-09-03T07:25:02.292Z,56.46
2022-09-03T07:27:28.804Z,56.61
2022-09-03T07:29:55.151Z,56.69
2022-09-03T07:32:21.588Z,56.43
2022-09-03T07:34:48.286Z,56.82
2022-09-03T07:37:14.678Z,56.46
2022-09-03T07:39:41.016Z,56.61
2022-09-03T07:42:07.542Z,56.54
2022-09-03T07:44:33.912Z,56.63
2022-09-03T07:47:00.525Z,56.94
2022-09-03T07:49:26.906Z,56.80
2022-09-03T07:51:53.373Z,56.73
2022-09-03T07:54:19.843Z,56.65
2022-09-03T07:56:46.287Z,57.02
2022-09-03T07:59:12.646Z,57.14
2022-09-03T08:01:39.268Z,57.04
2022-09-03T08:04:09.572Z,57.16
2022-09-03T08:06:36.448Z,57.07
2022-09-03T08:09:05.299Z,56.92
2022-09-03T08:11:31.965Z,56.80
2022-09-03T08:13:58.329Z,56.84
2022-09-03T08:16:24.824Z,56.76
2022-09-03T08:18:51.493Z,57.09
2022-09-03T08:21:18.312Z,57.09
2022-09-03T08:23:44.949Z,57.22
2022-09-03T08:26:11.284Z,57.06
2022-09-03T08:28:37.745Z,57.15
2022-09-03T08:31:04.872Z,57.46
2022-09-03T08:33:31.882Z,57.35
2022-09-03T08:35:59.851Z,57.53
2022-09-03T08:38:26.306Z,57.34
2022-09-03T08:40:52.808Z,57.15
2022-09-03T08:43:19.178Z,57.50
2022-09-03T08:45:45.750Z,57.50
2022-09-03T08:48:12.304Z,57.16
2022-09-03T08:50:39.976Z,57.13
2022-09-03T08:53:06.641Z,57.44
2022-09-03T08:55:33.037Z,57.29
2022-09-03T08:57:59.369Z,57.45
2022-09-03T09:00:25.942Z,57.49
2022-09-03T09:02:52.345Z,57.37
2022-09-03T09:05:19.448Z,57.28
2022-09-03T09:07:45.904Z,57.67
2022-09-03T09:10:12.266Z,57.57
2022-09-03T09:12:45.580Z,57.52
2022-09-03T09:15:12.988Z,57.35
2022-09-03T09:17:39.321Z,57.68
2022-09-03T09:20:05.669Z,57.68
2022-09-03T09:22:32.517Z,57.39
2022-09-03T09:24:58.844Z,57.77
2022-09-03T09:27:25.285Z,57.45
2022-09-03T09:29:52.336Z,57.53
2022-09-03T09:32:18.831Z,57.34
2022-09-03T09:34:52.064Z,57.08
2022-09-03T09:37:19.075Z,57.66
2022-09-03T09:39:45.514Z,57.67
2022-09-03T09:42:11.905Z,57.51
2022-09-03T09:44:38.345Z,57.71
2022-09-03T09:47:04.802Z,57.61
2022-09-03T09:49:31.164Z,57.72
2022-09-03T09:51:57.873Z,57.86
2022-09-03T09:54:24.373Z,57.20
2022-09-03T09:56:50.653Z,57.27
2022-09-03T09:59:17.137Z,57.48
2022-09-03T10:01:43.655Z,57.66
2022-09-03T10:04:10.263Z,57.22
2022-09-03T10:06:36.544Z,57.18
2022-09-03T10:09:02.903Z,57.18
2022-09-03T10:11:29.684Z,57.21
2022-09-03T10:13:56.114Z,57.42
2022-09-03T10:16:25.882Z,57.43
2022-09-03T10:18:52.342Z,57.09
2022-09-03T10:21:19.023Z,57.43
2022-09-03T10:23:45.490Z,57.42
2022-09-03T10:26:11.845Z,57.24
2022-09-03T10:28:38.218Z,56.96
2022-09-03T10:31:04.852Z,56.83
2022-09-03T10:33:31.384Z,56.36
2022-09-03T10:35:58.026Z,56.69
2022-09-03T10:38:24.495Z,56.11
2022-09-03T10:40:51.123Z,53.91
2022-09-03T10:43:17.557Z,53.53
2022-09-03T10:45:43.953Z,53.31
2022-09-03T10:48:10.339Z,52.65
2022-09-03T10:50:36.679Z,52.78
2022-09-03T10:53:02.978Z,52.15
2022-09-03T10:55:29.366Z,51.57
2022-09-03T10:57:55.780Z,51.61
2022-09-03T11:00:22.116Z,51.36
2022-09-03T11:02:48.511Z,52.20
2022-09-03T11:05:15.198Z,51.23
2022-09-03T11:07:42.502Z,52.02
2022-09-03T11:10:08.884Z,51.97
2022-09-03T11:12:36.021Z,51.73
2022-09-03T11:15:02.429Z,51.52
2022-09-03T11:17:28.818Z,50.47
2022-09-03T11:19:57.916Z,51.91
2022-09-03T11:22:24.298Z,52.05
2022-09-03T11:24:51.374Z,52.34
2022-09-03T11:27:17.720Z,52.43
2022-09-03T11:29:44.111Z,52.84
2022-09-03T11:32:11.536Z,52.92
2022-09-03T11:34:37.905Z,53.20
2022-09-03T11:37:04.341Z,53.37
2022-09-03T11:39:30.743Z,53.54
2022-09-03T11:41:57.114Z,53.98
2022-09-03T11:44:23.460Z,53.88
2022-09-03T11:46:50.139Z,53.98
2022-09-03T11:51:42.958Z,54.21
2022-09-03T11:54:09.639Z,53.79
2022-09-03T11:56:36.263Z,54.05
2022-09-03T12:01:29.618Z,54.24
2022-09-03T12:03:55.918Z,53.99
2022-09-03T12:06:22.295Z,54.15
2022-09-03T12:08:48.786Z,54.33
2022-09-03T12:11:15.234Z,54.69
2022-09-03T12:13:41.749Z,54.60
2022-09-03T12:16:08.176Z,54.50
2022-09-03T12:18:34.605Z,54.59
2022-09-03T12:21:01.025Z,54.32
2022-09-03T12:23:27.642Z,54.51
2022-09-03T12:25:54.024Z,54.63
2022-09-03T12:28:20.670Z,54.60
2022-09-03T12:30:47.096Z,54.71
2022-09-03T12:33:13.530Z,54.45
2022-09-03T12:38:26.706Z,54.63
2022-09-03T12:43:49.039Z,54.23
2022-09-03T12:46:17.629Z,54.68
2022-09-03T12:48:44.768Z,54.70
2022-09-03T12:53:57.622Z,54.66
2022-09-03T12:56:25.793Z,54.46
2022-09-03T12:58:52.907Z,54.63
2022-09-03T13:01:19.382Z,54.41
2022-09-03T13:03:45.837Z,54.76
2022-09-03T13:06:12.243Z,54.78
2022-09-03T13:08:38.546Z,54.85
2022-09-03T13:11:04.868Z,54.76
2022-09-03T13:13:31.212Z,54.80
2022-09-03T13:15:57.653Z,55.10
2022-09-03T13:18:23.948Z,55.10
2022-09-03T13:20:50.659Z,55.03
2022-09-03T13:23:17.127Z,54.95
2022-09-03T13:25:43.659Z,54.61
2022-09-03T13:28:09.959Z,54.74
2022-09-03T13:30:36.381Z,55.15
2022-09-03T13:33:02.925Z,55.39
2022-09-03T13:35:29.321Z,55.30
2022-09-03T13:37:55.747Z,55.48
2022-09-03T13:40:22.053Z,55.17
2022-09-03T13:42:50.837Z,55.41
2022-09-03T13:45:19.900Z,55.48
2022-09-03T13:47:46.352Z,55.33
2022-09-03T13:50:12.796Z,55.35
2022-09-03T13:52:39.522Z,55.17
2022-09-03T13:55:05.909Z,55.60
2022-09-03T13:57:32.682Z,55.25
2022-09-03T13:59:59.008Z,55.42
2022-09-03T14:02:25.324Z,55.40
2022-09-03T14:04:51.720Z,55.52
2022-09-03T14:07:18.076Z,55.33
2022-09-03T14:09:44.834Z,55.74
2022-09-03T14:12:11.206Z,55.35
2022-09-03T14:14:37.528Z,55.32
2022-09-03T14:17:03.856Z,54.90
2022-09-03T14:19:30.447Z,55.52
2022-09-03T14:21:56.756Z,55.51
2022-09-03T14:24:23.096Z,55.40
2022-09-03T14:26:50.022Z,54.98
2022-09-03T14:29:16.436Z,55.09
2022-09-03T14:31:42.761Z,55.29
2022-09-03T14:34:09.240Z,54.74
2022-09-03T14:36:35.577Z,55.12
2022-09-03T14:39:01.993Z,54.94
2022-09-03T14:41:28.362Z,55.39
2022-09-03T14:43:54.724Z,55.12
2022-09-03T14:46:21.545Z,55.24
2022-09-03T14:48:48.047Z,55.50
2022-09-03T14:51:17.723Z,55.64
2022-09-03T14:53:46.270Z,55.30
2022-09-03T14:56:12.624Z,55.46
2022-09-03T14:58:39.103Z,55.27
2022-09-03T15:01:05.719Z,55.25
2022-09-03T15:03:32.630Z,55.43
2022-09-03T15:05:58.998Z,55.03
2022-09-03T15:08:25.548Z,55.05
2022-09-03T15:10:56.550Z,55.33
2022-09-03T15:13:23.541Z,55.10
2022-09-03T15:15:52.658Z,55.16
2022-09-03T15:18:19.181Z,55.33
2022-09-03T15:20:45.511Z,55.17
2022-09-03T15:23:12.098Z,55.23
2022-09-03T15:25:38.476Z,55.29
2022-09-03T15:28:04.940Z,55.66
2022-09-03T15:30:31.311Z,55.39
2022-09-03T15:32:57.604Z,55.76
2022-09-03T15:35:23.979Z,55.62
2022-09-03T15:37:50.325Z,55.57
2022-09-03T15:40:16.749Z,55.36
2022-09-03T15:42:43.129Z,55.60
2022-09-03T15:45:11.552Z,55.38
2022-09-03T15:47:50.997Z,55.74
2022-09-03T15:50:17.857Z,55.44
2022-09-03T15:52:44.182Z,55.32
2022-09-03T15:55:10.510Z,55.26
2022-09-03T15:57:36.903Z,55.29
2022-09-03T16:00:03.281Z,55.34
2022-09-03T16:02:29.712Z,55.71
2022-09-03T16:04:56.286Z,55.45
2022-09-03T16:07:22.714Z,55.74
2022-09-03T16:10:07.649Z,55.72
2022-09-03T16:12:36.189Z,55.38
2022-09-03T16:15:02.545Z,55.41
2022-09-03T16:17:28.891Z,55.79
2022-09-03T16:19:55.511Z,55.53
2022-09-03T16:22:22.611Z,55.62
2022-09-03T16:24:48.957Z,55.27
2022-09-03T16:27:15.517Z,55.58
2022-09-03T16:29:41.942Z,55.31
2022-09-03T16:32:08.618Z,55.18
2022-09-03T16:34:34.960Z,55.46
2022-09-03T16:37:01.284Z,55.55
2022-09-03T16:39:27.699Z,55.43
2022-09-03T16:41:54.829Z,55.40
2022-09-03T16:44:21.169Z,55.50
2022-09-03T16:46:47.945Z,55.39
2022-09-03T16:49:14.275Z,55.62
2022-09-03T16:51:40.797Z,55.64
2022-09-03T16:54:07.113Z,55.83
2022-09-03T16:56:33.562Z,55.40
2022-09-03T16:58:59.986Z,55.42
2022-09-03T17:01:26.433Z,55.35
2022-09-03T17:03:52.844Z,55.57
2022-09-03T17:06:19.338Z,55.79
2022-09-03T17:08:45.834Z,55.80
2022-09-03T17:11:12.435Z,55.39
2022-09-03T17:13:39.148Z,55.75
2022-09-03T17:16:05.582Z,55.90
2022-09-03T17:18:32.005Z,55.63
2022-09-03T17:20:58.494Z,55.96
2022-09-03T17:23:25.124Z,55.58
2022-09-03T17:25:51.680Z,55.91
2022-09-03T17:28:22.698Z,55.61
2022-09-03T17:30:51.086Z,55.84
2022-09-03T17:33:17.575Z,55.72
2022-09-03T17:35:44.033Z,55.86
2022-09-03T17:38:10.971Z,55.83
2022-09-03T17:40:37.284Z,55.98
2022-09-03T17:43:03.637Z,55.80
2022-09-03T17:45:30.009Z,55.97
2022-09-03T17:47:56.767Z,56.10
2022-09-03T17:50:23.115Z,55.72
2022-09-03T17:52:49.689Z,55.79
2022-09-03T17:55:17.147Z,55.88
2022-09-03T17:57:43.543Z,56.09
2022-09-03T18:00:10.415Z,55.94
2022-09-03T18:02:36.797Z,55.81
2022-09-03T18:05:04.997Z,56.03
2022-09-03T18:07:31.358Z,55.85
2022-09-03T18:09:57.745Z,56.19
2022-09-03T18:12:24.110Z,55.83
2022-09-03T18:14:50.428Z,56.09
2022-09-03T18:17:16.965Z,55.80
2022-09-03T18:19:43.255Z,55.92
2022-09-03T18:22:10.393Z,55.82
2022-09-03T18:24:36.976Z,56.25
2022-09-03T18:27:03.573Z,56.06
2022-09-03T18:29:30.007Z,55.62
2022-09-03T18:31:56.497Z,55.23
2022-09-03T18:34:22.950Z,55.32
2022-09-03T18:36:49.294Z,55.03
2022-09-03T18:39:15.601Z,54.91
2022-09-03T18:41:41.879Z,55.53
2022-09-03T18:44:08.390Z,56.11
2022-09-03T18:49:21.570Z,56.62
2022-09-03T18:51:47.945Z,56.96
2022-09-03T18:54:14.273Z,56.59
2022-09-03T18:56:40.706Z,56.67
2022-09-03T18:59:07.117Z,56.92
2022-09-03T19:01:33.881Z,57.31
2022-09-03T19:04:00.292Z,57.17
2022-09-03T19:06:26.626Z,57.60
2022-09-03T19:08:53.125Z,57.59
2022-09-03T19:11:19.551Z,57.67
2022-09-03T19:13:46.040Z,57.52
2022-09-03T19:16:12.840Z,57.65
2022-09-03T19:18:39.486Z,57.93
2022-09-03T19:21:06.098Z,57.98
2022-09-03T19:23:34.509Z,57.67
2022-09-03T19:26:00.887Z,57.94
2022-09-03T19:28:27.482Z,58.25
2022-09-03T19:30:53.947Z,57.91
2022-09-03T19:33:20.364Z,58.03
2022-09-03T19:35:46.860Z,58.05
2022-09-03T19:38:13.479Z,58.18
2022-09-03T19:40:39.816Z,58.50
2022-09-03T19:43:06.195Z,58.18
2022-09-03T19:45:32.873Z,58.58
2022-09-03T19:47:59.824Z,58.40
2022-09-03T19:50:29.617Z,58.47
2022-09-03T19:52:58.118Z,58.46
2022-09-03T19:55:24.832Z,58.54
2022-09-03T19:57:56.114Z,58.26
2022-09-03T20:00:33.251Z,58.76
2022-09-03T20:03:00.233Z,58.56
2022-09-03T20:05:26.732Z,58.59
2022-09-03T20:07:53.109Z,58.75
2022-09-03T20:10:19.811Z,58.74
2022-09-03T20:12:46.239Z,58.76
2022-09-03T20:15:12.594Z,58.86
2022-09-03T20:17:39.002Z,58.17
2022-09-03T20:20:05.445Z,57.57
2022-09-03T20:22:31.778Z,58.55
2022-09-03T20:24:58.116Z,58.15
2022-09-03T20:27:24.721Z,58.33
2022-09-03T20:29:51.027Z,58.30
2022-09-03T20:32:17.353Z,58.27
2022-09-03T20:34:43.747Z,57.86
2022-09-03T20:37:10.118Z,58.06
2022-09-03T20:39:36.578Z,57.82
2022-09-03T20:42:02.966Z,57.77
2022-09-03T20:44:29.278Z,58.02
2022-09-03T20:46:55.800Z,57.78
2022-09-03T20:49:22.314Z,57.80
2022-09-03T20:51:49.144Z,58.04
2022-09-03T20:54:15.602Z,57.73
2022-09-03T20:56:41.988Z,57.98
2022-09-03T20:59:08.591Z,58.05
2022-09-03T21:01:35.090Z,57.86
2022-09-03T21:04:04.459Z,58.16
2022-09-03T21:06:31.371Z,58.04
2022-09-03T21:08:57.772Z,57.78
2022-09-03T21:11:29.991Z,58.05
2022-09-03T21:13:56.394Z,57.98
2022-09-03T21:16:22.851Z,57.92
2022-09-03T21:18:49.336Z,57.85
2022-09-03T21:21:15.781Z,57.78
2022-09-03T21:23:42.213Z,57.97
2022-09-03T21:26:08.621Z,57.99
2022-09-03T21:28:34.950Z,57.72
2022-09-03T21:31:01.321Z,57.66
2022-09-03T21:33:27.817Z,57.85
2022-09-03T21:35:54.319Z,57.65
2022-09-03T21:38:20.717Z,57.66
2022-09-03T21:40:47.100Z,57.44
2022-09-03T21:43:13.530Z,57.53
2022-09-03T21:45:39.951Z,57.67
2022-09-03T21:48:06.689Z,57.69
2022-09-03T21:50:33.108Z,57.47
2022-09-03T21:53:00.386Z,57.75
2022-09-03T21:55:26.763Z,57.51
2022-09-03T21:57:53.425Z,57.79
2022-09-03T22:00:19.971Z,57.77
2022-09-03T22:02:46.799Z,57.77
2022-09-03T22:05:13.269Z,57.61
2022-09-03T22:07:39.737Z,57.56
2022-09-03T22:10:06.183Z,57.94
2022-09-03T22:12:32.604Z,58.01
2022-09-03T22:14:59.466Z,57.67
2022-09-03T22:17:25.793Z,57.62
2022-09-03T22:19:52.138Z,57.90
2022-09-03T22:22:18.940Z,58.01
2022-09-03T22:24:45.326Z,58.06
2022-09-03T22:27:11.972Z,57.78
2022-09-03T22:29:38.435Z,57.82
2022-09-03T22:32:04.832Z,57.88
2022-09-03T22:34:31.210Z,58.10
2022-09-03T22:36:57.642Z,58.18
2022-09-03T22:39:24.985Z,57.86
2022-09-03T22:41:51.365Z,58.04
2022-09-03T22:44:17.698Z,58.23
2022-09-03T22:46:44.117Z,58.13
2022-09-03T22:49:10.547Z,58.26
2022-09-03T22:51:37.086Z,58.10
2022-09-03T22:54:03.694Z,57.97
2022-09-03T22:56:30.210Z,58.19
2022-09-03T22:58:56.614Z,57.98
2022-09-03T23:01:23.046Z,58.07
2022-09-03T23:03:49.450Z,58.08
2022-09-03T23:06:16.128Z,58.18
2022-09-03T23:08:42.461Z,58.48
2022-09-03T23:11:08.871Z,58.01
2022-09-03T23:13:35.289Z,58.02
2022-09-03T23:16:01.838Z,58.19
2022-09-03T23:18:28.156Z,58.08
2022-09-03T23:20:54.529Z,58.53
2022-09-03T23:23:20.885Z,58.23
2022-09-03T23:25:47.623Z,58.24
2022-09-03T23:28:13.995Z,58.37
2022-09-03T23:30:40.361Z,58.31
2022-09-03T23:33:06.915Z,58.01
2022-09-03T23:35:33.284Z,58.00
2022-09-03T23:37:59.629Z,58.22
2022-09-03T23:40:26.289Z,58.03
2022-09-03T23:42:52.687Z,57.86
2022-09-03T23:45:19.158Z,57.86
2022-09-03T23:47:46.071Z,57.77
2022-09-03T23:50:12.585Z,57.84
2022-09-03T23:52:38.997Z,57.93
2022-09-03T23:55:05.537Z,58.09
2022-09-03T23:57:31.975Z,57.85
2022-09-03T23:59:58.417Z,57.58
